sensor_id;sensor_type;location;lat;lon;timestamp;temperature;humidity
26990;DHT22;14537;47.788;11.858;2023-08-31T00:01:44;11.20;99.90
26990;DHT22;14537;47.788;11.858;2023-08-31T00:04:09;11.20;99.90
26990;DHT22;14537;47.788;11.858;2023-08-31T00:06:40;11.20;99.90
26990;DHT22;14537;47.788;11.858;2023-08-31T00:09:06;11.20;99.90
26990;DHT22;14537;47.788;11.858;2023-08-31T00:11:35;11.20;99.90
26990;DHT22;14537;47.788;11.858;2023-08-31T00:14:01;11.20;99.90
26990;DHT22;14537;47.788;11.858;2023-08-31T00:16:26;11.20;99.90
26990;DHT22;14537;47.788;11.858;2023-08-31T00:18:53;11.20;99.90
26990;DHT22;14537;47.788;11.858;2023-08-31T00:21:20;11.20;99.90
26990;DHT22;14537;47.788;11.858;2023-08-31T00:23:47;11.20;99.90
26990;DHT22;14537;47.788;11.858;2023-08-31T00:26:13;11.20;99.90
26990;DHT22;14537;47.788;11.858;2023-08-31T00:28:40;11.20;99.90
26990;DHT22;14537;47.788;11.858;2023-08-31T00:31:10;11.20;99.90
26990;DHT22;14537;47.788;11.858;2023-08-31T00:33:38;11.20;99.90
26990;DHT22;14537;47.788;11.858;2023-08-31T00:36:04;11.20;99.90
26990;DHT22;14537;47.788;11.858;2023-08-31T00:38:31;11.20;99.90
26990;DHT22;14537;47.788;11.858;2023-08-31T00:40:56;11.10;99.90
26990;DHT22;14537;47.788;11.858;2023-08-31T00:43:22;11.10;99.90
26990;DHT22;14537;47.788;11.858;2023-08-31T00:45:49;11.10;99.90
26990;DHT22;14537;47.788;11.858;2023-08-31T00:48:17;11.10;99.90
26990;DHT22;14537;47.788;11.858;2023-08-31T00:50:46;11.10;99.90
26990;DHT22;14537;47.788;11.858;2023-08-31T00:53:12;11.10;99.90
26990;DHT22;14537;47.788;11.858;2023-08-31T00:55:38;11.10;99.90
26990;DHT22;14537;47.788;11.858;2023-08-31T00:58:07;11.00;99.90
26990;DHT22;14537;47.788;11.858;2023-08-31T01:00:45;11.00;99.90
26990;DHT22;14537;47.788;11.858;2023-08-31T01:03:17;11.00;99.90
26990;DHT22;14537;47.788;11.858;2023-08-31T01:09:07;11.00;99.90
26990;DHT22;14537;47.788;11.858;2023-08-31T01:12:10;10.90;99.90
26990;DHT22;14537;47.788;11.858;2023-08-31T01:14:47;10.90;99.90
26990;DHT22;14537;47.788;11.858;2023-08-31T01:17:15;10.90;99.90
26990;DHT22;14537;47.788;11.858;2023-08-31T01:19:49;10.80;99.90
26990;DHT22;14537;47.788;11.858;2023-08-31T01:22:29;10.80;99.90
26990;DHT22;14537;47.788;11.858;2023-08-31T01:24:57;10.70;99.90
26990;DHT22;14537;47.788;11.858;2023-08-31T01:27:23;10.70;99.90
26990;DHT22;14537;47.788;11.858;2023-08-31T01:29:49;10.70;99.90
26990;DHT22;14537;47.788;11.858;2023-08-31T01:32:15;10.60;99.90
26990;DHT22;14537;47.788;11.858;2023-08-31T01:34:41;10.60;99.90
26990;DHT22;14537;47.788;11.858;2023-08-31T01:37:20;10.50;99.90
26990;DHT22;14537;47.788;11.858;2023-08-31T01:39:50;10.50;99.90
26990;DHT22;14537;47.788;11.858;2023-08-31T01:42:17;10.40;99.90
26990;DHT22;14537;47.788;11.858;2023-08-31T01:44:45;10.40;99.90
26990;DHT22;14537;47.788;11.858;2023-08-31T01:47:14;10.40;99.90
26990;DHT22;14537;47.788;11.858;2023-08-31T01:49:41;10.40;99.90
26990;DHT22;14537;47.788;11.858;2023-08-31T01:52:08;10.30;99.90
26990;DHT22;14537;47.788;11.858;2023-08-31T01:54:34;10.10;99.90
26990;DHT22;14537;47.788;11.858;2023-08-31T01:57:00;10.10;99.90
26990;DHT22;14537;47.788;11.858;2023-08-31T01:59:25;10.10;99.90
26990;DHT22;14537;47.788;11.858;2023-08-31T02:01:52;10.00;99.90
26990;DHT22;14537;47.788;11.858;2023-08-31T02:04:18;10.10;99.90
26990;DHT22;14537;47.788;11.858;2023-08-31T02:06:43;10.10;99.90
26990;DHT22;14537;47.788;11.858;2023-08-31T02:09:09;10.20;99.90
26990;DHT22;14537;47.788;11.858;2023-08-31T02:11:34;10.20;99.90
26990;DHT22;14537;47.788;11.858;2023-08-31T02:14:06;10.20;99.90
26990;DHT22;14537;47.788;11.858;2023-08-31T02:16:33;10.30;99.90
26990;DHT22;14537;47.788;11.858;2023-08-31T02:18:59;10.30;99.90
26990;DHT22;14537;47.788;11.858;2023-08-31T02:21:24;10.40;99.90
26990;DHT22;14537;47.788;11.858;2023-08-31T02:23:50;10.40;99.90
26990;DHT22;14537;47.788;11.858;2023-08-31T02:26:15;10.40;99.90
26990;DHT22;14537;47.788;11.858;2023-08-31T02:28:41;10.50;99.90
26990;DHT22;14537;47.788;11.858;2023-08-31T02:31:07;10.50;99.90
26990;DHT22;14537;47.788;11.858;2023-08-31T02:33:32;10.50;99.90
26990;DHT22;14537;47.788;11.858;2023-08-31T02:35:58;10.50;99.90
26990;DHT22;14537;47.788;11.858;2023-08-31T02:38:24;10.40;99.90
26990;DHT22;14537;47.788;11.858;2023-08-31T02:40:49;10.50;99.90
26990;DHT22;14537;47.788;11.858;2023-08-31T02:43:15;10.50;99.90
26990;DHT22;14537;47.788;11.858;2023-08-31T02:45:41;10.50;99.90
26990;DHT22;14537;47.788;11.858;2023-08-31T02:48:07;10.60;99.90
26990;DHT22;14537;47.788;11.858;2023-08-31T02:50:34;10.60;99.90
26990;DHT22;14537;47.788;11.858;2023-08-31T02:53:00;10.60;99.90
26990;DHT22;14537;47.788;11.858;2023-08-31T02:55:25;10.70;99.90
26990;DHT22;14537;47.788;11.858;2023-08-31T02:57:51;10.90;99.90
26990;DHT22;14537;47.788;11.858;2023-08-31T03:00:17;11.00;99.90
26990;DHT22;14537;47.788;11.858;2023-08-31T03:02:47;11.10;99.90
26990;DHT22;14537;47.788;11.858;2023-08-31T03:05:13;11.20;99.90
26990;DHT22;14537;47.788;11.858;2023-08-31T03:07:38;11.30;99.90
26990;DHT22;14537;47.788;11.858;2023-08-31T03:10:04;11.50;99.90
26990;DHT22;14537;47.788;11.858;2023-08-31T03:12:30;11.70;99.90
26990;DHT22;14537;47.788;11.858;2023-08-31T03:14:55;11.80;99.90
26990;DHT22;14537;47.788;11.858;2023-08-31T03:17:21;11.80;99.90
26990;DHT22;14537;47.788;11.858;2023-08-31T03:19:47;11.90;99.90
26990;DHT22;14537;47.788;11.858;2023-08-31T03:22:12;11.90;99.90
26990;DHT22;14537;47.788;11.858;2023-08-31T03:24:38;12.10;99.90
26990;DHT22;14537;47.788;11.858;2023-08-31T03:27:03;12.30;99.90
26990;DHT22;14537;47.788;11.858;2023-08-31T03:29:29;12.50;99.90
26990;DHT22;14537;47.788;11.858;2023-08-31T03:31:57;12.70;99.90
26990;DHT22;14537;47.788;11.858;2023-08-31T03:34:23;12.80;99.90
26990;DHT22;14537;47.788;11.858;2023-08-31T03:36:48;12.80;99.90
26990;DHT22;14537;47.788;11.858;2023-08-31T03:39:15;12.80;99.90
26990;DHT22;14537;47.788;11.858;2023-08-31T03:41:41;12.80;99.90
26990;DHT22;14537;47.788;11.858;2023-08-31T03:44:07;12.70;99.90
26990;DHT22;14537;47.788;11.858;2023-08-31T03:46:32;12.60;99.90
26990;DHT22;14537;47.788;11.858;2023-08-31T03:48:58;12.50;99.90
26990;DHT22;14537;47.788;11.858;2023-08-31T03:51:23;12.40;99.90
26990;DHT22;14537;47.788;11.858;2023-08-31T03:53:49;12.30;99.90
26990;DHT22;14537;47.788;11.858;2023-08-31T03:56:14;12.30;99.90
26990;DHT22;14537;47.788;11.858;2023-08-31T03:58:40;12.30;99.90
26990;DHT22;14537;47.788;11.858;2023-08-31T04:01:06;12.20;99.90
26990;DHT22;14537;47.788;11.858;2023-08-31T04:03:31;12.10;99.90
26990;DHT22;14537;47.788;11.858;2023-08-31T04:05:57;12.00;99.90
26990;DHT22;14537;47.788;11.858;2023-08-31T04:08:22;12.00;99.90
26990;DHT22;14537;47.788;11.858;2023-08-31T04:10:48;11.90;99.90
26990;DHT22;14537;47.788;11.858;2023-08-31T04:13:14;11.90;99.90
26990;DHT22;14537;47.788;11.858;2023-08-31T04:15:39;12.00;99.90
26990;DHT22;14537;47.788;11.858;2023-08-31T04:18:05;12.00;99.90
26990;DHT22;14537;47.788;11.858;2023-08-31T04:20:32;12.00;99.90
26990;DHT22;14537;47.788;11.858;2023-08-31T04:22:58;12.00;99.90
26990;DHT22;14537;47.788;11.858;2023-08-31T04:25:24;12.00;99.90
26990;DHT22;14537;47.788;11.858;2023-08-31T04:27:49;12.00;99.90
26990;DHT22;14537;47.788;11.858;2023-08-31T04:30:15;12.00;99.90
26990;DHT22;14537;47.788;11.858;2023-08-31T04:32:41;12.00;99.90
26990;DHT22;14537;47.788;11.858;2023-08-31T04:35:07;12.00;99.90
26990;DHT22;14537;47.788;11.858;2023-08-31T04:37:33;11.90;99.90
26990;DHT22;14537;47.788;11.858;2023-08-31T04:39:59;11.90;99.90
26990;DHT22;14537;47.788;11.858;2023-08-31T04:42:24;11.90;99.90
26990;DHT22;14537;47.788;11.858;2023-08-31T04:44:50;12.00;99.90
26990;DHT22;14537;47.788;11.858;2023-08-31T04:47:16;11.90;99.90
26990;DHT22;14537;47.788;11.858;2023-08-31T04:49:41;11.90;99.90
26990;DHT22;14537;47.788;11.858;2023-08-31T04:52:08;11.90;99.90
26990;DHT22;14537;47.788;11.858;2023-08-31T04:54:33;11.90;99.90
26990;DHT22;14537;47.788;11.858;2023-08-31T04:56:59;11.90;99.90
26990;DHT22;14537;47.788;11.858;2023-08-31T04:59:25;11.90;99.90
26990;DHT22;14537;47.788;11.858;2023-08-31T05:01:50;11.90;99.90
26990;DHT22;14537;47.788;11.858;2023-08-31T05:04:16;11.90;99.90
26990;DHT22;14537;47.788;11.858;2023-08-31T05:06:41;11.90;99.90
26990;DHT22;14537;47.788;11.858;2023-08-31T05:09:07;11.90;99.90
26990;DHT22;14537;47.788;11.858;2023-08-31T05:11:33;12.00;99.90
26990;DHT22;14537;47.788;11.858;2023-08-31T05:13:59;12.00;99.90
26990;DHT22;14537;47.788;11.858;2023-08-31T05:16:24;12.00;99.90
26990;DHT22;14537;47.788;11.858;2023-08-31T05:18:50;12.00;99.90
26990;DHT22;14537;47.788;11.858;2023-08-31T05:21:16;12.00;99.90
26990;DHT22;14537;47.788;11.858;2023-08-31T05:23:41;12.00;99.90
26990;DHT22;14537;47.788;11.858;2023-08-31T05:26:07;12.00;99.90
26990;DHT22;14537;47.788;11.858;2023-08-31T05:28:32;12.00;99.90
26990;DHT22;14537;47.788;11.858;2023-08-31T05:31:01;12.00;99.90
26990;DHT22;14537;47.788;11.858;2023-08-31T05:33:29;12.00;99.90
26990;DHT22;14537;47.788;11.858;2023-08-31T05:36:00;12.00;99.90
26990;DHT22;14537;47.788;11.858;2023-08-31T05:38:25;12.10;99.90
26990;DHT22;14537;47.788;11.858;2023-08-31T05:40:51;12.10;99.90
26990;DHT22;14537;47.788;11.858;2023-08-31T05:43:17;12.20;99.90
26990;DHT22;14537;47.788;11.858;2023-08-31T05:45:42;12.20;99.90
26990;DHT22;14537;47.788;11.858;2023-08-31T05:48:08;12.20;99.90
26990;DHT22;14537;47.788;11.858;2023-08-31T05:50:34;12.30;99.90
26990;DHT22;14537;47.788;11.858;2023-08-31T05:53:02;12.30;99.90
26990;DHT22;14537;47.788;11.858;2023-08-31T05:55:27;12.40;99.90
26990;DHT22;14537;47.788;11.858;2023-08-31T05:57:53;12.50;99.90
26990;DHT22;14537;47.788;11.858;2023-08-31T06:00:19;12.60;99.90
26990;DHT22;14537;47.788;11.858;2023-08-31T06:02:44;12.60;99.90
26990;DHT22;14537;47.788;11.858;2023-08-31T06:05:10;12.70;99.90
26990;DHT22;14537;47.788;11.858;2023-08-31T06:07:42;12.70;99.90
26990;DHT22;14537;47.788;11.858;2023-08-31T06:10:07;12.70;99.90
26990;DHT22;14537;47.788;11.858;2023-08-31T06:12:33;12.60;99.90
26990;DHT22;14537;47.788;11.858;2023-08-31T06:14:59;12.60;99.90
26990;DHT22;14537;47.788;11.858;2023-08-31T06:17:25;12.60;99.90
26990;DHT22;14537;47.788;11.858;2023-08-31T06:19:51;12.50;99.90
26990;DHT22;14537;47.788;11.858;2023-08-31T06:22:17;12.50;99.90
26990;DHT22;14537;47.788;11.858;2023-08-31T06:24:43;12.50;99.90
26990;DHT22;14537;47.788;11.858;2023-08-31T06:27:11;12.40;99.90
26990;DHT22;14537;47.788;11.858;2023-08-31T06:29:38;12.40;99.90
26990;DHT22;14537;47.788;11.858;2023-08-31T06:32:04;12.30;99.90
26990;DHT22;14537;47.788;11.858;2023-08-31T06:34:29;12.30;99.90
26990;DHT22;14537;47.788;11.858;2023-08-31T06:36:56;12.40;99.90
26990;DHT22;14537;47.788;11.858;2023-08-31T06:39:24;12.30;99.90
26990;DHT22;14537;47.788;11.858;2023-08-31T06:41:49;12.40;99.90
26990;DHT22;14537;47.788;11.858;2023-08-31T06:44:15;12.40;99.90
26990;DHT22;14537;47.788;11.858;2023-08-31T06:46:42;12.40;99.90
26990;DHT22;14537;47.788;11.858;2023-08-31T06:49:08;12.40;99.90
26990;DHT22;14537;47.788;11.858;2023-08-31T06:51:34;12.40;99.90
26990;DHT22;14537;47.788;11.858;2023-08-31T06:54:00;12.40;99.90
26990;DHT22;14537;47.788;11.858;2023-08-31T06:56:32;12.40;99.90
26990;DHT22;14537;47.788;11.858;2023-08-31T06:58:58;12.50;99.90
26990;DHT22;14537;47.788;11.858;2023-08-31T07:01:24;12.50;99.90
26990;DHT22;14537;47.788;11.858;2023-08-31T07:03:49;12.60;99.90
26990;DHT22;14537;47.788;11.858;2023-08-31T07:06:15;12.60;99.90
26990;DHT22;14537;47.788;11.858;2023-08-31T07:08:40;12.60;99.90
26990;DHT22;14537;47.788;11.858;2023-08-31T07:11:07;12.70;99.90
26990;DHT22;14537;47.788;11.858;2023-08-31T07:13:33;12.80;99.90
26990;DHT22;14537;47.788;11.858;2023-08-31T07:15:58;12.90;99.90
26990;DHT22;14537;47.788;11.858;2023-08-31T07:18:24;13.00;99.90
26990;DHT22;14537;47.788;11.858;2023-08-31T07:20:49;13.10;99.90
26990;DHT22;14537;47.788;11.858;2023-08-31T07:23:15;13.10;99.90
26990;DHT22;14537;47.788;11.858;2023-08-31T07:25:40;13.20;99.90
26990;DHT22;14537;47.788;11.858;2023-08-31T07:28:07;13.20;99.90
26990;DHT22;14537;47.788;11.858;2023-08-31T07:30:33;13.00;99.90
26990;DHT22;14537;47.788;11.858;2023-08-31T07:32:58;12.90;99.90
26990;DHT22;14537;47.788;11.858;2023-08-31T07:35:28;12.80;99.90
26990;DHT22;14537;47.788;11.858;2023-08-31T07:37:53;12.70;99.90
26990;DHT22;14537;47.788;11.858;2023-08-31T07:40:19;12.70;99.90
26990;DHT22;14537;47.788;11.858;2023-08-31T07:42:44;12.80;99.90
26990;DHT22;14537;47.788;11.858;2023-08-31T07:45:10;12.70;99.90
26990;DHT22;14537;47.788;11.858;2023-08-31T07:47:36;12.80;99.90
26990;DHT22;14537;47.788;11.858;2023-08-31T07:50:02;12.90;99.90
26990;DHT22;14537;47.788;11.858;2023-08-31T07:52:27;13.00;99.90
26990;DHT22;14537;47.788;11.858;2023-08-31T07:54:53;13.00;99.90
26990;DHT22;14537;47.788;11.858;2023-08-31T07:57:19;13.10;99.90
26990;DHT22;14537;47.788;11.858;2023-08-31T07:59:45;13.10;99.90
26990;DHT22;14537;47.788;11.858;2023-08-31T08:02:10;13.20;99.90
26990;DHT22;14537;47.788;11.858;2023-08-31T08:04:36;13.10;99.90
26990;DHT22;14537;47.788;11.858;2023-08-31T08:07:01;13.10;99.90
26990;DHT22;14537;47.788;11.858;2023-08-31T08:09:29;13.20;99.90
26990;DHT22;14537;47.788;11.858;2023-08-31T08:11:55;13.30;99.90
26990;DHT22;14537;47.788;11.858;2023-08-31T08:14:21;13.30;99.90
26990;DHT22;14537;47.788;11.858;2023-08-31T08:16:47;13.40;99.90
26990;DHT22;14537;47.788;11.858;2023-08-31T08:19:12;13.40;99.90
26990;DHT22;14537;47.788;11.858;2023-08-31T08:21:38;13.40;99.90
26990;DHT22;14537;47.788;11.858;2023-08-31T08:24:03;13.50;99.90
26990;DHT22;14537;47.788;11.858;2023-08-31T08:26:29;13.50;99.90
26990;DHT22;14537;47.788;11.858;2023-08-31T08:28:55;13.40;99.90
26990;DHT22;14537;47.788;11.858;2023-08-31T08:31:20;13.50;99.90
26990;DHT22;14537;47.788;11.858;2023-08-31T08:33:46;13.50;99.90
26990;DHT22;14537;47.788;11.858;2023-08-31T08:36:11;13.60;99.90
26990;DHT22;14537;47.788;11.858;2023-08-31T08:38:38;13.60;99.90
26990;DHT22;14537;47.788;11.858;2023-08-31T08:41:06;13.70;99.90
26990;DHT22;14537;47.788;11.858;2023-08-31T08:43:33;13.70;99.90
26990;DHT22;14537;47.788;11.858;2023-08-31T08:46:05;13.80;99.90
26990;DHT22;14537;47.788;11.858;2023-08-31T08:48:33;13.90;99.90
26990;DHT22;14537;47.788;11.858;2023-08-31T08:51:00;13.80;99.90
26990;DHT22;14537;47.788;11.858;2023-08-31T08:53:25;14.00;99.90
26990;DHT22;14537;47.788;11.858;2023-08-31T08:55:51;14.10;99.90
26990;DHT22;14537;47.788;11.858;2023-08-31T08:58:17;14.10;99.90
26990;DHT22;14537;47.788;11.858;2023-08-31T09:00:43;14.30;99.90
26990;DHT22;14537;47.788;11.858;2023-08-31T09:03:08;14.50;99.90
26990;DHT22;14537;47.788;11.858;2023-08-31T09:05:34;14.50;99.90
26990;DHT22;14537;47.788;11.858;2023-08-31T09:08:01;14.70;99.90
26990;DHT22;14537;47.788;11.858;2023-08-31T09:10:37;14.70;99.90
26990;DHT22;14537;47.788;11.858;2023-08-31T09:13:11;14.50;99.90
26990;DHT22;14537;47.788;11.858;2023-08-31T09:15:41;14.40;99.90
26990;DHT22;14537;47.788;11.858;2023-08-31T09:18:08;14.30;99.90
26990;DHT22;14537;47.788;11.858;2023-08-31T09:20:46;14.30;99.90
26990;DHT22;14537;47.788;11.858;2023-08-31T09:23:16;14.20;99.90
26990;DHT22;14537;47.788;11.858;2023-08-31T09:25:46;14.20;99.90
26990;DHT22;14537;47.788;11.858;2023-08-31T09:28:15;14.10;99.90
26990;DHT22;14537;47.788;11.858;2023-08-31T09:30:42;14.00;99.90
26990;DHT22;14537;47.788;11.858;2023-08-31T09:33:18;14.00;99.90
26990;DHT22;14537;47.788;11.858;2023-08-31T09:35:51;14.00;99.90
26990;DHT22;14537;47.788;11.858;2023-08-31T09:38:18;14.00;99.90
26990;DHT22;14537;47.788;11.858;2023-08-31T09:40:44;14.00;99.90
26990;DHT22;14537;47.788;11.858;2023-08-31T09:43:10;14.00;99.90
26990;DHT22;14537;47.788;11.858;2023-08-31T09:45:36;14.00;99.90
26990;DHT22;14537;47.788;11.858;2023-08-31T09:48:03;14.00;99.90
26990;DHT22;14537;47.788;11.858;2023-08-31T09:50:31;14.10;99.90
26990;DHT22;14537;47.788;11.858;2023-08-31T09:53:01;14.00;99.90
26990;DHT22;14537;47.788;11.858;2023-08-31T09:55:30;14.00;99.90
26990;DHT22;14537;47.788;11.858;2023-08-31T09:58:00;13.90;99.90
26990;DHT22;14537;47.788;11.858;2023-08-31T10:00:27;13.80;99.90
26990;DHT22;14537;47.788;11.858;2023-08-31T10:02:56;13.90;99.90
26990;DHT22;14537;47.788;11.858;2023-08-31T10:05:23;13.80;99.90
26990;DHT22;14537;47.788;11.858;2023-08-31T10:07:50;13.90;99.90
26990;DHT22;14537;47.788;11.858;2023-08-31T10:10:16;14.00;99.90
26990;DHT22;14537;47.788;11.858;2023-08-31T10:12:43;14.00;99.90
26990;DHT22;14537;47.788;11.858;2023-08-31T10:15:11;14.20;99.90
26990;DHT22;14537;47.788;11.858;2023-08-31T10:17:39;14.20;99.90
26990;DHT22;14537;47.788;11.858;2023-08-31T10:20:08;14.40;99.90
26990;DHT22;14537;47.788;11.858;2023-08-31T10:22:54;14.40;99.90
26990;DHT22;14537;47.788;11.858;2023-08-31T10:25:20;14.30;99.90
26990;DHT22;14537;47.788;11.858;2023-08-31T10:27:45;14.30;99.90
26990;DHT22;14537;47.788;11.858;2023-08-31T10:30:32;14.20;99.90
26990;DHT22;14537;47.788;11.858;2023-08-31T10:38:23;14.80;99.90
26990;DHT22;14537;47.788;11.858;2023-08-31T10:41:03;14.90;99.90
26990;DHT22;14537;47.788;11.858;2023-08-31T10:43:44;15.10;99.90
26990;DHT22;14537;47.788;11.858;2023-08-31T10:46:32;15.30;99.90
26990;DHT22;14537;47.788;11.858;2023-08-31T10:49:12;15.50;99.90
26990;DHT22;14537;47.788;11.858;2023-08-31T10:51:56;15.50;99.90
26990;DHT22;14537;47.788;11.858;2023-08-31T10:54:24;15.40;99.90
26990;DHT22;14537;47.788;11.858;2023-08-31T10:59:23;15.10;99.90
26990;DHT22;14537;47.788;11.858;2023-08-31T11:01:52;15.10;99.90
26990;DHT22;14537;47.788;11.858;2023-08-31T11:04:20;15.30;99.90
26990;DHT22;14537;47.788;11.858;2023-08-31T11:06:46;15.20;99.90
26990;DHT22;14537;47.788;11.858;2023-08-31T11:09:29;15.30;99.90
26990;DHT22;14537;47.788;11.858;2023-08-31T11:11:56;15.10;99.90
26990;DHT22;14537;47.788;11.858;2023-08-31T11:14:21;14.80;99.90
26990;DHT22;14537;47.788;11.858;2023-08-31T11:16:47;14.90;99.90
26990;DHT22;14537;47.788;11.858;2023-08-31T11:19:13;14.90;99.90
26990;DHT22;14537;47.788;11.858;2023-08-31T11:21:38;15.00;99.90
26990;DHT22;14537;47.788;11.858;2023-08-31T11:24:04;15.20;99.90
26990;DHT22;14537;47.788;11.858;2023-08-31T11:26:31;15.30;99.90
26990;DHT22;14537;47.788;11.858;2023-08-31T11:28:57;15.50;99.90
26990;DHT22;14537;47.788;11.858;2023-08-31T11:31:26;15.50;99.90
26990;DHT22;14537;47.788;11.858;2023-08-31T11:33:54;15.50;99.90
26990;DHT22;14537;47.788;11.858;2023-08-31T11:36:20;15.50;99.90
26990;DHT22;14537;47.788;11.858;2023-08-31T11:38:48;15.70;99.90
26990;DHT22;14537;47.788;11.858;2023-08-31T11:41:14;15.60;99.90
26990;DHT22;14537;47.788;11.858;2023-08-31T11:43:40;15.60;99.90
26990;DHT22;14537;47.788;11.858;2023-08-31T11:46:06;15.70;99.90
26990;DHT22;14537;47.788;11.858;2023-08-31T11:48:33;15.60;99.90
26990;DHT22;14537;47.788;11.858;2023-08-31T11:50:59;15.60;99.90
26990;DHT22;14537;47.788;11.858;2023-08-31T11:53:26;15.70;99.90
26990;DHT22;14537;47.788;11.858;2023-08-31T11:55:52;15.80;99.90
26990;DHT22;14537;47.788;11.858;2023-08-31T11:58:19;15.70;99.90
26990;DHT22;14537;47.788;11.858;2023-08-31T12:00:45;15.80;99.90
26990;DHT22;14537;47.788;11.858;2023-08-31T12:03:12;15.70;99.90
26990;DHT22;14537;47.788;11.858;2023-08-31T12:05:45;15.60;99.90
26990;DHT22;14537;47.788;11.858;2023-08-31T12:08:11;15.60;99.90
26990;DHT22;14537;47.788;11.858;2023-08-31T12:10:40;15.60;99.90
26990;DHT22;14537;47.788;11.858;2023-08-31T12:13:10;15.70;99.90
26990;DHT22;14537;47.788;11.858;2023-08-31T12:15:35;15.70;99.90
26990;DHT22;14537;47.788;11.858;2023-08-31T12:18:11;15.70;99.90
26990;DHT22;14537;47.788;11.858;2023-08-31T12:21:06;15.60;99.90
26990;DHT22;14537;47.788;11.858;2023-08-31T12:23:32;15.90;99.90
26990;DHT22;14537;47.788;11.858;2023-08-31T12:25:57;16.00;99.90
26990;DHT22;14537;47.788;11.858;2023-08-31T12:28:23;16.10;99.90
26990;DHT22;14537;47.788;11.858;2023-08-31T12:30:51;16.30;99.90
26990;DHT22;14537;47.788;11.858;2023-08-31T12:33:17;16.30;99.90
26990;DHT22;14537;47.788;11.858;2023-08-31T12:35:43;16.10;99.90
26990;DHT22;14537;47.788;11.858;2023-08-31T12:38:09;16.30;99.90
26990;DHT22;14537;47.788;11.858;2023-08-31T12:40:34;16.50;99.90
26990;DHT22;14537;47.788;11.858;2023-08-31T12:43:00;16.70;99.90
26990;DHT22;14537;47.788;11.858;2023-08-31T12:45:26;16.70;99.90
26990;DHT22;14537;47.788;11.858;2023-08-31T12:47:54;16.80;99.90
26990;DHT22;14537;47.788;11.858;2023-08-31T12:50:25;17.10;99.90
26990;DHT22;14537;47.788;11.858;2023-08-31T12:52:50;17.20;99.90
26990;DHT22;14537;47.788;11.858;2023-08-31T12:55:16;17.20;99.90
26990;DHT22;14537;47.788;11.858;2023-08-31T12:57:42;16.90;99.90
26990;DHT22;14537;47.788;11.858;2023-08-31T13:00:09;16.70;99.90
26990;DHT22;14537;47.788;11.858;2023-08-31T13:02:40;16.60;99.90
26990;DHT22;14537;47.788;11.858;2023-08-31T13:05:07;16.70;99.90
26990;DHT22;14537;47.788;11.858;2023-08-31T13:07:36;16.90;99.90
26990;DHT22;14537;47.788;11.858;2023-08-31T13:10:02;17.20;99.90
26990;DHT22;14537;47.788;11.858;2023-08-31T13:12:30;17.40;99.90
26990;DHT22;14537;47.788;11.858;2023-08-31T13:14:56;17.10;99.90
26990;DHT22;14537;47.788;11.858;2023-08-31T13:17:22;17.30;99.90
26990;DHT22;14537;47.788;11.858;2023-08-31T13:19:55;17.40;99.90
26990;DHT22;14537;47.788;11.858;2023-08-31T13:22:21;17.40;99.90
26990;DHT22;14537;47.788;11.858;2023-08-31T13:24:47;17.10;99.90
26990;DHT22;14537;47.788;11.858;2023-08-31T13:27:13;17.30;99.90
26990;DHT22;14537;47.788;11.858;2023-08-31T13:29:39;17.50;99.90
26990;DHT22;14537;47.788;11.858;2023-08-31T13:32:05;17.50;99.90
26990;DHT22;14537;47.788;11.858;2023-08-31T13:34:31;17.80;99.90
26990;DHT22;14537;47.788;11.858;2023-08-31T13:36:57;18.10;99.90
26990;DHT22;14537;47.788;11.858;2023-08-31T13:39:22;18.00;99.90
26990;DHT22;14537;47.788;11.858;2023-08-31T13:41:50;18.00;99.90
26990;DHT22;14537;47.788;11.858;2023-08-31T13:44:17;18.20;99.90
26990;DHT22;14537;47.788;11.858;2023-08-31T13:46:43;18.10;99.90
26990;DHT22;14537;47.788;11.858;2023-08-31T13:49:08;18.10;99.90
26990;DHT22;14537;47.788;11.858;2023-08-31T13:51:34;18.10;99.90
26990;DHT22;14537;47.788;11.858;2023-08-31T13:54:02;18.40;99.90
26990;DHT22;14537;47.788;11.858;2023-08-31T13:56:29;18.70;99.90
26990;DHT22;14537;47.788;11.858;2023-08-31T13:58:55;18.90;99.90
26990;DHT22;14537;47.788;11.858;2023-08-31T14:01:20;18.60;99.90
26990;DHT22;14537;47.788;11.858;2023-08-31T14:03:46;18.40;99.90
26990;DHT22;14537;47.788;11.858;2023-08-31T14:06:12;18.40;99.90
26990;DHT22;14537;47.788;11.858;2023-08-31T14:08:39;18.40;99.90
26990;DHT22;14537;47.788;11.858;2023-08-31T14:11:05;18.20;99.90
26990;DHT22;14537;47.788;11.858;2023-08-31T14:13:31;18.10;99.90
26990;DHT22;14537;47.788;11.858;2023-08-31T14:15:56;18.10;99.90
26990;DHT22;14537;47.788;11.858;2023-08-31T14:18:22;18.00;99.90
26990;DHT22;14537;47.788;11.858;2023-08-31T14:20:51;18.20;99.90
26990;DHT22;14537;47.788;11.858;2023-08-31T14:23:16;18.10;99.90
26990;DHT22;14537;47.788;11.858;2023-08-31T14:25:42;18.20;99.90
26990;DHT22;14537;47.788;11.858;2023-08-31T14:28:07;18.30;99.90
26990;DHT22;14537;47.788;11.858;2023-08-31T14:30:35;18.40;99.90
26990;DHT22;14537;47.788;11.858;2023-08-31T14:33:02;18.00;99.90
26990;DHT22;14537;47.788;11.858;2023-08-31T14:35:28;17.60;99.90
26990;DHT22;14537;47.788;11.858;2023-08-31T14:37:53;17.50;99.90
26990;DHT22;14537;47.788;11.858;2023-08-31T14:40:19;17.50;99.90
26990;DHT22;14537;47.788;11.858;2023-08-31T14:42:45;17.40;99.90
26990;DHT22;14537;47.788;11.858;2023-08-31T14:45:10;17.60;99.90
26990;DHT22;14537;47.788;11.858;2023-08-31T14:47:36;17.90;99.90
26990;DHT22;14537;47.788;11.858;2023-08-31T14:50:01;18.10;99.90
26990;DHT22;14537;47.788;11.858;2023-08-31T14:52:29;18.10;99.90
26990;DHT22;14537;47.788;11.858;2023-08-31T14:54:55;18.00;99.90
26990;DHT22;14537;47.788;11.858;2023-08-31T14:57:20;17.80;99.90
26990;DHT22;14537;47.788;11.858;2023-08-31T14:59:46;17.60;99.90
26990;DHT22;14537;47.788;11.858;2023-08-31T15:02:12;17.50;99.90
26990;DHT22;14537;47.788;11.858;2023-08-31T15:04:39;17.30;99.90
26990;DHT22;14537;47.788;11.858;2023-08-31T15:07:05;17.20;99.90
26990;DHT22;14537;47.788;11.858;2023-08-31T15:09:31;17.20;99.90
26990;DHT22;14537;47.788;11.858;2023-08-31T15:11:57;17.10;99.90
26990;DHT22;14537;47.788;11.858;2023-08-31T15:14:23;17.20;99.90
26990;DHT22;14537;47.788;11.858;2023-08-31T15:16:48;17.40;99.90
26990;DHT22;14537;47.788;11.858;2023-08-31T15:19:14;17.40;99.90
26990;DHT22;14537;47.788;11.858;2023-08-31T15:21:40;17.50;99.90
26990;DHT22;14537;47.788;11.858;2023-08-31T15:24:05;17.40;99.90
26990;DHT22;14537;47.788;11.858;2023-08-31T15:26:31;17.30;99.90